sensor_id;sensor_type;location;lat;lon;timestamp;temperature;humidity
9265;DHT22;4669;49.594;10.958;2024-01-07T05:29:33;4.30;99.90
9265;DHT22;4669;49.594;10.958;2024-01-07T05:34:35;4.20;99.90
9265;DHT22;4669;49.594;10.958;2024-01-07T05:39:37;4.20;99.90
9265;DHT22;4669;49.594;10.958;2024-01-07T05:44:41;4.10;99.90
9265;DHT22;4669;49.594;10.958;2024-01-07T05:49:43;4.20;99.90
9265;DHT22;4669;49.594;10.958;2024-01-07T05:54:45;4.10;99.90
9265;DHT22;4669;49.594;10.958;2024-01-07T05:59:48;4.10;99.90
9265;DHT22;4669;49.594;10.958;2024-01-07T06:04:51;4.10;99.90
9265;DHT22;4669;49.594;10.958;2024-01-07T06:09:53;4.00;99.90
9265;DHT22;4669;49.594;10.958;2024-01-07T06:14:56;4.00;99.90
9265;DHT22;4669;49.594;10.958;2024-01-07T06:19:58;3.90;99.90
9265;DHT22;4669;49.594;10.958;2024-01-07T06:25:02;4.00;99.90
9265;DHT22;4669;49.594;10.958;2024-01-07T06:30:06;4.00;99.90
9265;DHT22;4669;49.594;10.958;2024-01-07T06:35:09;4.00;99.90
9265;DHT22;4669;49.594;10.958;2024-01-07T06:40:11;4.00;99.90
9265;DHT22;4669;49.594;10.958;2024-01-07T06:45:15;4.00;99.90
9265;DHT22;4669;49.594;10.958;2024-01-07T06:50:17;3.90;99.90
9265;DHT22;4669;49.594;10.958;2024-01-07T06:55:22;4.00;99.90
9265;DHT22;4669;49.594;10.958;2024-01-07T07:00:25;3.90;99.90
9265;DHT22;4669;49.594;10.958;2024-01-07T07:05:27;3.90;99.90
9265;DHT22;4669;49.594;10.958;2024-01-07T07:10:29;4.00;99.90
9265;DHT22;4669;49.594;10.958;2024-01-07T07:15:33;4.10;99.90
9265;DHT22;4669;49.594;10.958;2024-01-07T07:20:36;4.00;99.90
9265;DHT22;4669;49.594;10.958;2024-01-07T07:25:38;3.90;99.90
9265;DHT22;4669;49.594;10.958;2024-01-07T07:30:42;3.90;99.90
9265;DHT22;4669;49.594;10.958;2024-01-07T07:35:44;3.90;99.90
9265;DHT22;4669;49.594;10.958;2024-01-07T07:40:46;3.90;99.90
9265;DHT22;4669;49.594;10.958;2024-01-07T07:45:54;3.80;99.90
9265;DHT22;4669;49.594;10.958;2024-01-07T07:50:56;3.80;99.90
9265;DHT22;4669;49.594;10.958;2024-01-07T07:55:58;3.80;99.90
9265;DHT22;4669;49.594;10.958;2024-01-07T08:01:01;3.80;99.90
9265;DHT22;4669;49.594;10.958;2024-01-07T08:06:05;3.80;99.90
9265;DHT22;4669;49.594;10.958;2024-01-07T08:11:07;3.70;99.90
9265;DHT22;4669;49.594;10.958;2024-01-07T08:16:11;3.70;99.90
9265;DHT22;4669;49.594;10.958;2024-01-07T08:21:13;3.80;99.90
9265;DHT22;4669;49.594;10.958;2024-01-07T08:26:18;3.70;99.90
9265;DHT22;4669;49.594;10.958;2024-01-07T08:31:21;3.60;99.90
9265;DHT22;4669;49.594;10.958;2024-01-07T08:36:23;3.60;99.90
9265;DHT22;4669;49.594;10.958;2024-01-07T08:41:25;3.50;99.90
9265;DHT22;4669;49.594;10.958;2024-01-07T08:46:29;3.40;99.90
9265;DHT22;4669;49.594;10.958;2024-01-07T08:51:31;3.40;99.90
9265;DHT22;4669;49.594;10.958;2024-01-07T08:56:33;3.40;99.90
9265;DHT22;4669;49.594;10.958;2024-01-07T09:01:36;3.50;99.90
9265;DHT22;4669;49.594;10.958;2024-01-07T09:06:38;3.40;99.90
9265;DHT22;4669;49.594;10.958;2024-01-07T09:11:41;3.30;99.90
9265;DHT22;4669;49.594;10.958;2024-01-07T09:16:44;3.30;99.90
9265;DHT22;4669;49.594;10.958;2024-01-07T09:21:46;3.20;99.90
9265;DHT22;4669;49.594;10.958;2024-01-07T09:26:48;3.30;99.90
9265;DHT22;4669;49.594;10.958;2024-01-07T09:31:53;3.20;99.90
9265;DHT22;4669;49.594;10.958;2024-01-07T09:36:55;3.20;99.90
9265;DHT22;4669;49.594;10.958;2024-01-07T09:41:57;3.20;99.90
9265;DHT22;4669;49.594;10.958;2024-01-07T09:47:02;3.10;99.90
9265;DHT22;4669;49.594;10.958;2024-01-07T09:52:06;3.10;99.90
9265;DHT22;4669;49.594;10.958;2024-01-07T09:57:09;3.00;99.90
9265;DHT22;4669;49.594;10.958;2024-01-07T10:02:12;3.00;99.90
9265;DHT22;4669;49.594;10.958;2024-01-07T10:07:14;3.10;99.90
9265;DHT22;4669;49.594;10.958;2024-01-07T10:12:16;3.00;99.90
9265;DHT22;4669;49.594;10.958;2024-01-07T10:17:20;2.90;99.90
9265;DHT22;4669;49.594;10.958;2024-01-07T10:22:26;3.00;99.90
9265;DHT22;4669;49.594;10.958;2024-01-07T10:27:28;3.00;99.90
9265;DHT22;4669;49.594;10.958;2024-01-07T10:32:35;3.00;99.90
9265;DHT22;4669;49.594;10.958;2024-01-07T10:37:37;2.90;99.90
9265;DHT22;4669;49.594;10.958;2024-01-07T10:42:40;2.90;99.90
9265;DHT22;4669;49.594;10.958;2024-01-07T10:47:48;3.00;99.90
9265;DHT22;4669;49.594;10.958;2024-01-07T10:52:57;2.90;99.90
9265;DHT22;4669;49.594;10.958;2024-01-07T10:58:00;2.90;99.90
9265;DHT22;4669;49.594;10.958;2024-01-07T11:03:08;2.90;99.90
9265;DHT22;4669;49.594;10.958;2024-01-07T11:08:28;2.70;99.90
9265;DHT22;4669;49.594;10.958;2024-01-07T11:13:32;2.80;99.90
9265;DHT22;4669;49.594;10.958;2024-01-07T11:18:38;2.90;99.90
9265;DHT22;4669;49.594;10.958;2024-01-07T11:23:43;2.80;99.90
9265;DHT22;4669;49.594;10.958;2024-01-07T11:28:49;2.70;99.90
9265;DHT22;4669;49.594;10.958;2024-01-07T11:33:52;2.80;99.90
9265;DHT22;4669;49.594;10.958;2024-01-07T11:38:55;2.90;99.90
9265;DHT22;4669;49.594;10.958;2024-01-07T11:43:59;2.80;99.90
9265;DHT22;4669;49.594;10.958;2024-01-07T11:49:02;2.80;99.90
9265;DHT22;4669;49.594;10.958;2024-01-07T11:54:05;2.70;99.90
9265;DHT22;4669;49.594;10.958;2024-01-07T11:59:08;2.60;99.90
9265;DHT22;4669;49.594;10.958;2024-01-07T12:04:12;2.70;99.90
9265;DHT22;4669;49.594;10.958;2024-01-07T12:09:14;2.60;99.90
9265;DHT22;4669;49.594;10.958;2024-01-07T12:14:16;2.50;99.90
9265;DHT22;4669;49.594;10.958;2024-01-07T12:19:19;2.60;99.90
9265;DHT22;4669;49.594;10.958;2024-01-07T12:24:24;2.50;99.90
9265;DHT22;4669;49.594;10.958;2024-01-07T12:29:26;2.40;99.90
9265;DHT22;4669;49.594;10.958;2024-01-07T12:34:30;2.40;99.90
9265;DHT22;4669;49.594;10.958;2024-01-07T12:39:32;2.30;99.90
9265;DHT22;4669;49.594;10.958;2024-01-07T12:44:34;2.40;99.90
9265;DHT22;4669;49.594;10.958;2024-01-07T12:49:39;2.40;99.90
9265;DHT22;4669;49.594;10.958;2024-01-07T12:54:41;2.40;99.90
9265;DHT22;4669;49.594;10.958;2024-01-07T12:59:43;2.30;99.90
9265;DHT22;4669;49.594;10.958;2024-01-07T13:04:46;2.30;99.90
9265;DHT22;4669;49.594;10.958;2024-01-07T13:09:48;2.40;99.90
9265;DHT22;4669;49.594;10.958;2024-01-07T13:14:50;2.30;99.90
9265;DHT22;4669;49.594;10.958;2024-01-07T13:19:53;2.30;99.90
9265;DHT22;4669;49.594;10.958;2024-01-07T13:24:55;2.30;99.90
9265;DHT22;4669;49.594;10.958;2024-01-07T13:29:58;2.30;99.90
9265;DHT22;4669;49.594;10.958;2024-01-07T13:35:02;2.30;99.90
9265;DHT22;4669;49.594;10.958;2024-01-07T13:40:05;2.20;99.90
9265;DHT22;4669;49.594;10.958;2024-01-07T13:45:10;2.20;99.90
9265;DHT22;4669;49.594;10.958;2024-01-07T13:50:15;2.20;99.90
9265;DHT22;4669;49.594;10.958;2024-01-07T13:55:17;2.20;99.90
9265;DHT22;4669;49.594;10.958;2024-01-07T14:00:20;2.30;99.90
9265;DHT22;4669;49.594;10.958;2024-01-07T14:05:24;2.20;99.90
9265;DHT22;4669;49.594;10.958;2024-01-07T14:10:26;2.20;99.90
9265;DHT22;4669;49.594;10.958;2024-01-07T14:15:28;2.10;99.90
9265;DHT22;4669;49.594;10.958;2024-01-07T14:20:31;2.00;99.90
9265;DHT22;4669;49.594;10.958;2024-01-07T14:25:33;2.00;99.90
9265;DHT22;4669;49.594;10.958;2024-01-07T14:30:35;2.10;99.90
9265;DHT22;4669;49.594;10.958;2024-01-07T14:35:38;2.00;99.90
9265;DHT22;4669;49.594;10.958;2024-01-07T14:40:41;2.00;99.90
9265;DHT22;4669;49.594;10.958;2024-01-07T14:45:46;2.00;99.90
9265;DHT22;4669;49.594;10.958;2024-01-07T14:50:50;2.00;99.90
9265;DHT22;4669;49.594;10.958;2024-01-07T14:55:52;2.00;99.90
9265;DHT22;4669;49.594;10.958;2024-01-07T15:00:54;1.80;99.90
9265;DHT22;4669;49.594;10.958;2024-01-07T15:06:00;1.90;99.90
9265;DHT22;4669;49.594;10.958;2024-01-07T15:11:02;2.00;99.90
9265;DHT22;4669;49.594;10.958;2024-01-07T15:16:05;1.90;99.90
9265;DHT22;4669;49.594;10.958;2024-01-07T15:21:08;1.90;99.90
9265;DHT22;4669;49.594;10.958;2024-01-07T15:26:10;1.80;99.90
9265;DHT22;4669;49.594;10.958;2024-01-07T15:31:13;1.80;99.90
9265;DHT22;4669;49.594;10.958;2024-01-07T15:36:16;1.80;99.90
9265;DHT22;4669;49.594;10.958;2024-01-07T15:41:18;1.80;99.90
9265;DHT22;4669;49.594;10.958;2024-01-07T15:46:20;1.70;99.90
9265;DHT22;4669;49.594;10.958;2024-01-07T15:51:24;1.60;99.90
9265;DHT22;4669;49.594;10.958;2024-01-07T15:56:26;1.50;99.90
9265;DHT22;4669;49.594;10.958;2024-01-07T16:01:28;1.40;99.90
9265;DHT22;4669;49.594;10.958;2024-01-07T16:06:32;1.40;99.90
9265;DHT22;4669;49.594;10.958;2024-01-07T16:11:33;1.40;99.90
9265;DHT22;4669;49.594;10.958;2024-01-07T16:16:36;1.40;99.90
9265;DHT22;4669;49.594;10.958;2024-01-07T16:21:43;1.40;99.90
9265;DHT22;4669;49.594;10.958;2024-01-07T16:26:45;1.40;99.90
9265;DHT22;4669;49.594;10.958;2024-01-07T16:31:47;1.40;99.90
9265;DHT22;4669;49.594;10.958;2024-01-07T16:36:50;1.40;99.90
9265;DHT22;4669;49.594;10.958;2024-01-07T16:41:52;1.30;99.90
9265;DHT22;4669;49.594;10.958;2024-01-07T16:46:55;1.10;99.90
9265;DHT22;4669;49.594;10.958;2024-01-07T16:51:59;1.10;99.90
9265;DHT22;4669;49.594;10.958;2024-01-07T16:57:01;1.10;99.90
9265;DHT22;4669;49.594;10.958;2024-01-07T17:02:03;1.10;99.90
9265;DHT22;4669;49.594;10.958;2024-01-07T17:07:06;1.00;99.90
9265;DHT22;4669;49.594;10.958;2024-01-07T17:12:08;1.00;99.90
9265;DHT22;4669;49.594;10.958;2024-01-07T17:17:10;1.00;99.90
9265;DHT22;4669;49.594;10.958;2024-01-07T17:22:14;1.00;99.90
9265;DHT22;4669;49.594;10.958;2024-01-07T17:27:16;1.00;99.60
9265;DHT22;4669;49.594;10.958;2024-01-07T17:32:18;0.90;99.90
9265;DHT22;4669;49.594;10.958;2024-01-07T17:37:24;0.80;99.70
9265;DHT22;4669;49.594;10.958;2024-01-07T17:42:26;0.90;99.90
9265;DHT22;4669;49.594;10.958;2024-01-07T17:47:29;0.90;99.80
9265;DHT22;4669;49.594;10.958;2024-01-07T17:52:33;0.80;99.80
9265;DHT22;4669;49.594;10.958;2024-01-07T17:57:35;0.90;99.60
9265;DHT22;4669;49.594;10.958;2024-01-07T18:02:37;0.80;99.40
9265;DHT22;4669;49.594;10.958;2024-01-07T18:07:41;0.70;99.50
9265;DHT22;4669;49.594;10.958;2024-01-07T18:12:43;0.70;99.70
9265;DHT22;4669;49.594;10.958;2024-01-07T18:17:45;0.70;99.60
9265;DHT22;4669;49.594;10.958;2024-01-07T18:22:49;0.60;99.70
9265;DHT22;4669;49.594;10.958;2024-01-07T18:27:50;0.60;99.50
9265;DHT22;4669;49.594;10.958;2024-01-07T18:32:52;0.50;99.50
9265;DHT22;4669;49.594;10.958;2024-01-07T18:37:56;0.50;99.10
9265;DHT22;4669;49.594;10.958;2024-01-07T18:42:58;0.50;99.10
9265;DHT22;4669;49.594;10.958;2024-01-07T18:48:02;0.40;98.90
9265;DHT22;4669;49.594;10.958;2024-01-07T18:53:05;0.30;98.80
9265;DHT22;4669;49.594;10.958;2024-01-07T18:58:07;0.20;99.10
9265;DHT22;4669;49.594;10.958;2024-01-07T19:03:09;0.30;99.00
9265;DHT22;4669;49.594;10.958;2024-01-07T19:08:16;0.30;99.20
9265;DHT22;4669;49.594;10.958;2024-01-07T19:13:18;0.30;98.80
9265;DHT22;4669;49.594;10.958;2024-01-07T19:18:21;0.20;98.90
9265;DHT22;4669;49.594;10.958;2024-01-07T19:23:24;0.20;99.30
9265;DHT22;4669;49.594;10.958;2024-01-07T19:28:27;0.10;99.30
9265;DHT22;4669;49.594;10.958;2024-01-07T19:33:29;0.10;99.30
9265;DHT22;4669;49.594;10.958;2024-01-07T19:38:32;0.10;99.40
9265;DHT22;4669;49.594;10.958;2024-01-07T19:43:34;0.20;99.40
9265;DHT22;4669;49.594;10.958;2024-01-07T19:48:36;0.20;99.60
9265;DHT22;4669;49.594;10.958;2024-01-07T19:53:40;0.20;99.60
9265;DHT22;4669;49.594;10.958;2024-01-07T19:58:43;0.20;99.60
9265;DHT22;4669;49.594;10.958;2024-01-07T20:03:45;0.30;99.30
9265;DHT22;4669;49.594;10.958;2024-01-07T20:08:49;0.30;99.00
9265;DHT22;4669;49.594;10.958;2024-01-07T20:13:52;0.20;99.10
9265;DHT22;4669;49.594;10.958;2024-01-07T20:18:54;0.20;98.90
9265;DHT22;4669;49.594;10.958;2024-01-07T20:23:59;0.20;99.30
9265;DHT22;4669;49.594;10.958;2024-01-07T20:29:01;0.30;99.00
9265;DHT22;4669;49.594;10.958;2024-01-07T20:34:08;0.30;98.70
9265;DHT22;4669;49.594;10.958;2024-01-07T20:39:12;0.30;98.90
9265;DHT22;4669;49.594;10.958;2024-01-07T20:44:14;0.30;98.50
9265;DHT22;4669;49.594;10.958;2024-01-07T20:49:16;0.30;98.50
9265;DHT22;4669;49.594;10.958;2024-01-07T20:54:19;0.30;98.80
9265;DHT22;4669;49.594;10.958;2024-01-07T20:59:21;0.30;98.80
9265;DHT22;4669;49.594;10.958;2024-01-07T21:04:23;0.40;98.80
9265;DHT22;4669;49.594;10.958;2024-01-07T21:09:27;0.40;98.40
9265;DHT22;4669;49.594;10.958;2024-01-07T21:14:29;0.40;98.30
9265;DHT22;4669;49.594;10.958;2024-01-07T21:19:31;0.30;98.60
9265;DHT22;4669;49.594;10.958;2024-01-07T21:24:34;0.30;98.60
9265;DHT22;4669;49.594;10.958;2024-01-07T21:29:36;0.20;98.80
9265;DHT22;4669;49.594;10.958;2024-01-07T21:34:38;0.30;98.60
9265;DHT22;4669;49.594;10.958;2024-01-07T21:39:42;0.20;98.80
9265;DHT22;4669;49.594;10.958;2024-01-07T21:44:44;0.20;99.30
9265;DHT22;4669;49.594;10.958;2024-01-07T21:49:46;0.20;99.10
9265;DHT22;4669;49.594;10.958;2024-01-07T21:54:49;0.30;99.30
9265;DHT22;4669;49.594;10.958;2024-01-07T21:59:51;0.20;99.60
9265;DHT22;4669;49.594;10.958;2024-01-07T22:04:54;0.30;99.50
9265;DHT22;4669;49.594;10.958;2024-01-07T22:09:58;0.30;99.70
9265;DHT22;4669;49.594;10.958;2024-01-07T22:15:00;0.30;99.80
9265;DHT22;4669;49.594;10.958;2024-01-07T22:20:02;0.30;99.90
9265;DHT22;4669;49.594;10.958;2024-01-07T22:25:07;0.30;99.90
9265;DHT22;4669;49.594;10.958;2024-01-07T22:30:11;0.30;99.90
9265;DHT22;4669;49.594;10.958;2024-01-07T22:35:13;0.30;99.90
9265;DHT22;4669;49.594;10.958;2024-01-07T22:40:16;0.30;99.90
9265;DHT22;4669;49.594;10.958;2024-01-07T22:45:18;0.30;99.80
9265;DHT22;4669;49.594;10.958;2024-01-07T22:50:20;0.20;99.90
9265;DHT22;4669;49.594;10.958;2024-01-07T22:55:24;0.30;99.90
